sensor_id;sensor_type;location;lat;lon;timestamp;P1;durP1;ratioP1;P2;durP2;ratioP2
75810;SDS011;64449;50.016;19.954;2022-10-31T00:01:30;35.70;;;19.70;;
75810;SDS011;64449;50.016;19.954;2022-10-31T00:04:01;29.40;;;17.80;;
75810;SDS011;64449;50.016;19.954;2022-10-31T00:06:26;32.60;;;20.00;;
75810;SDS011;64449;50.016;19.954;2022-10-31T00:08:53;36.10;;;19.30;;
75810;SDS011;64449;50.016;19.954;2022-10-31T00:11:21;31.80;;;18.40;;
75810;SDS011;64449;50.016;19.954;2022-10-31T00:13:46;31.70;;;18.20;;
75810;SDS011;64449;50.016;19.954;2022-10-31T00:16:16;26.80;;;16.50;;
75810;SDS011;64449;50.016;19.954;2022-10-31T00:18:42;26.30;;;13.00;;
75810;SDS011;64449;50.016;19.954;2022-10-31T00:21:08;24.30;;;14.90;;
75810;SDS011;64449;50.016;19.954;2022-10-31T00:23:33;28.00;;;16.60;;
75810;SDS011;64449;50.016;19.954;2022-10-31T00:26:00;22.20;;;13.70;;
75810;SDS011;64449;50.016;19.954;2022-10-31T00:28:27;25.50;;;16.40;;
75810;SDS011;64449;50.016;19.954;2022-10-31T00:30:52;32.90;;;17.20;;
75810;SDS011;64449;50.016;19.954;2022-10-31T00:33:17;27.50;;;16.30;;
75810;SDS011;64449;50.016;19.954;2022-10-31T00:35:48;28.90;;;16.20;;
75810;SDS011;64449;50.016;19.954;2022-10-31T00:38:14;27.20;;;15.40;;
75810;SDS011;64449;50.016;19.954;2022-10-31T00:40:40;25.10;;;14.90;;
75810;SDS011;64449;50.016;19.954;2022-10-31T00:43:05;26.80;;;14.40;;
75810;SDS011;64449;50.016;19.954;2022-10-31T00:45:30;29.20;;;14.40;;
75810;SDS011;64449;50.016;19.954;2022-10-31T00:47:56;23.30;;;14.20;;
75810;SDS011;64449;50.016;19.954;2022-10-31T00:50:21;26.00;;;15.60;;
75810;SDS011;64449;50.016;19.954;2022-10-31T00:52:46;25.70;;;13.10;;
75810;SDS011;64449;50.016;19.954;2022-10-31T00:55:12;24.40;;;13.30;;
75810;SDS011;64449;50.016;19.954;2022-10-31T00:57:37;22.80;;;13.10;;
75810;SDS011;64449;50.016;19.954;2022-10-31T01:00:03;22.60;;;13.00;;
75810;SDS011;64449;50.016;19.954;2022-10-31T01:02:28;23.30;;;13.00;;
75810;SDS011;64449;50.016;19.954;2022-10-31T01:04:54;21.20;;;11.50;;
75810;SDS011;64449;50.016;19.954;2022-10-31T01:07:19;20.80;;;11.10;;
75810;SDS011;64449;50.016;19.954;2022-10-31T01:09:44;23.60;;;14.10;;
75810;SDS011;64449;50.016;19.954;2022-10-31T01:12:10;31.80;;;14.60;;
75810;SDS011;64449;50.016;19.954;2022-10-31T01:14:35;16.00;;;9.50;;
75810;SDS011;64449;50.016;19.954;2022-10-31T01:17:01;20.50;;;11.20;;
75810;SDS011;64449;50.016;19.954;2022-10-31T01:19:26;24.70;;;13.80;;
75810;SDS011;64449;50.016;19.954;2022-10-31T01:21:53;22.40;;;12.10;;
75810;SDS011;64449;50.016;19.954;2022-10-31T01:24:20;21.60;;;11.80;;
75810;SDS011;64449;50.016;19.954;2022-10-31T01:26:45;25.50;;;12.60;;
75810;SDS011;64449;50.016;19.954;2022-10-31T01:29:11;22.20;;;13.80;;
75810;SDS011;64449;50.016;19.954;2022-10-31T01:31:37;22.80;;;12.90;;
75810;SDS011;64449;50.016;19.954;2022-10-31T01:34:04;29.50;;;16.40;;
75810;SDS011;64449;50.016;19.954;2022-10-31T01:38:59;24.30;;;11.60;;
75810;SDS011;64449;50.016;19.954;2022-10-31T01:41:28;20.90;;;10.60;;
75810;SDS011;64449;50.016;19.954;2022-10-31T01:43:59;21.10;;;11.90;;
75810;SDS011;64449;50.016;19.954;2022-10-31T01:46:36;23.10;;;12.80;;
75810;SDS011;64449;50.016;19.954;2022-10-31T01:49:08;25.40;;;14.50;;
75810;SDS011;64449;50.016;19.954;2022-10-31T01:51:38;22.00;;;11.20;;
75810;SDS011;64449;50.016;19.954;2022-10-31T01:54:09;18.30;;;10.70;;
75810;SDS011;64449;50.016;19.954;2022-10-31T01:56:38;17.90;;;10.80;;
75810;SDS011;64449;50.016;19.954;2022-10-31T01:59:08;21.10;;;11.50;;
75810;SDS011;64449;50.016;19.954;2022-10-31T02:01:37;24.10;;;11.40;;
75810;SDS011;64449;50.016;19.954;2022-10-31T02:04:03;16.00;;;9.50;;
75810;SDS011;64449;50.016;19.954;2022-10-31T02:06:33;21.80;;;12.20;;
75810;SDS011;64449;50.016;19.954;2022-10-31T02:09:04;25.10;;;12.50;;
75810;SDS011;64449;50.016;19.954;2022-10-31T02:11:31;19.80;;;11.50;;
75810;SDS011;64449;50.016;19.954;2022-10-31T02:14:00;25.00;;;12.90;;
75810;SDS011;64449;50.016;19.954;2022-10-31T02:16:27;24.60;;;12.30;;
75810;SDS011;64449;50.016;19.954;2022-10-31T02:18:53;22.60;;;12.70;;
75810;SDS011;64449;50.016;19.954;2022-10-31T02:21:21;18.00;;;10.40;;
75810;SDS011;64449;50.016;19.954;2022-10-31T02:35:08;23.00;;;12.40;;
75810;SDS011;64449;50.016;19.954;2022-10-31T02:40:33;23.90;;;12.40;;
75810;SDS011;64449;50.016;19.954;2022-10-31T02:43:06;23.10;;;12.90;;
75810;SDS011;64449;50.016;19.954;2022-10-31T02:45:50;29.70;;;15.70;;
75810;SDS011;64449;50.016;19.954;2022-10-31T02:48:24;25.30;;;14.40;;
75810;SDS011;64449;50.016;19.954;2022-10-31T02:50:55;25.90;;;13.60;;
75810;SDS011;64449;50.016;19.954;2022-10-31T02:53:26;25.00;;;14.80;;
75810;SDS011;64449;50.016;19.954;2022-10-31T02:55:56;18.00;;;11.00;;
75810;SDS011;64449;50.016;19.954;2022-10-31T02:58:25;22.70;;;13.40;;
75810;SDS011;64449;50.016;19.954;2022-10-31T03:03:27;23.50;;;13.10;;
75810;SDS011;64449;50.016;19.954;2022-10-31T03:06:20;23.50;;;14.00;;
75810;SDS011;64449;50.016;19.954;2022-10-31T03:11:23;27.40;;;14.40;;
75810;SDS011;64449;50.016;19.954;2022-10-31T03:13:57;27.50;;;14.80;;
75810;SDS011;64449;50.016;19.954;2022-10-31T03:16:40;27.20;;;14.40;;
75810;SDS011;64449;50.016;19.954;2022-10-31T03:24:36;28.10;;;16.50;;
75810;SDS011;64449;50.016;19.954;2022-10-31T03:27:03;27.90;;;14.60;;
75810;SDS011;64449;50.016;19.954;2022-10-31T03:29:32;23.60;;;13.60;;
75810;SDS011;64449;50.016;19.954;2022-10-31T03:32:06;26.70;;;14.30;;
75810;SDS011;64449;50.016;19.954;2022-10-31T03:34:42;24.70;;;13.20;;
75810;SDS011;64449;50.016;19.954;2022-10-31T03:37:10;24.00;;;13.30;;
75810;SDS011;64449;50.016;19.954;2022-10-31T03:39:39;29.10;;;14.80;;
75810;SDS011;64449;50.016;19.954;2022-10-31T03:44:48;28.40;;;15.10;;
75810;SDS011;64449;50.016;19.954;2022-10-31T03:47:20;30.30;;;15.90;;
75810;SDS011;64449;50.016;19.954;2022-10-31T03:49:46;27.60;;;14.80;;
75810;SDS011;64449;50.016;19.954;2022-10-31T03:52:45;28.80;;;15.20;;
75810;SDS011;64449;50.016;19.954;2022-10-31T03:57:48;23.20;;;12.40;;
75810;SDS011;64449;50.016;19.954;2022-10-31T04:00:19;27.30;;;14.60;;
75810;SDS011;64449;50.016;19.954;2022-10-31T04:02:46;31.30;;;15.80;;
75810;SDS011;64449;50.016;19.954;2022-10-31T04:05:16;33.40;;;14.90;;
75810;SDS011;64449;50.016;19.954;2022-10-31T04:07:44;23.90;;;13.70;;
75810;SDS011;64449;50.016;19.954;2022-10-31T04:10:13;19.30;;;10.10;;
75810;SDS011;64449;50.016;19.954;2022-10-31T04:12:41;19.70;;;10.60;;
75810;SDS011;64449;50.016;19.954;2022-10-31T04:15:09;29.50;;;15.50;;
75810;SDS011;64449;50.016;19.954;2022-10-31T04:17:36;17.90;;;11.80;;
75810;SDS011;64449;50.016;19.954;2022-10-31T04:20:05;37.40;;;15.40;;
75810;SDS011;64449;50.016;19.954;2022-10-31T04:22:31;22.30;;;13.10;;
75810;SDS011;64449;50.016;19.954;2022-10-31T04:24:57;19.40;;;12.30;;
75810;SDS011;64449;50.016;19.954;2022-10-31T04:27:22;19.90;;;10.70;;
75810;SDS011;64449;50.016;19.954;2022-10-31T04:29:47;25.00;;;12.80;;
75810;SDS011;64449;50.016;19.954;2022-10-31T04:32:13;28.50;;;15.30;;
75810;SDS011;64449;50.016;19.954;2022-10-31T04:34:38;22.40;;;14.20;;
75810;SDS011;64449;50.016;19.954;2022-10-31T04:37:04;23.30;;;12.50;;
75810;SDS011;64449;50.016;19.954;2022-10-31T04:39:29;22.70;;;13.00;;
75810;SDS011;64449;50.016;19.954;2022-10-31T04:41:55;24.10;;;13.90;;
75810;SDS011;64449;50.016;19.954;2022-10-31T04:44:20;20.80;;;11.60;;
75810;SDS011;64449;50.016;19.954;2022-10-31T04:46:45;22.20;;;12.50;;
75810;SDS011;64449;50.016;19.954;2022-10-31T04:49:11;20.10;;;13.50;;
75810;SDS011;64449;50.016;19.954;2022-10-31T04:51:36;22.70;;;12.90;;
75810;SDS011;64449;50.016;19.954;2022-10-31T04:54:02;25.20;;;13.20;;
75810;SDS011;64449;50.016;19.954;2022-10-31T04:56:27;23.80;;;13.80;;
75810;SDS011;64449;50.016;19.954;2022-10-31T04:58:53;26.90;;;13.40;;
75810;SDS011;64449;50.016;19.954;2022-10-31T05:01:18;23.20;;;14.00;;
75810;SDS011;64449;50.016;19.954;2022-10-31T05:03:43;23.70;;;13.20;;
75810;SDS011;64449;50.016;19.954;2022-10-31T05:06:09;28.10;;;14.30;;
75810;SDS011;64449;50.016;19.954;2022-10-31T05:08:34;25.00;;;14.20;;
75810;SDS011;64449;50.016;19.954;2022-10-31T05:11:00;22.70;;;11.50;;
75810;SDS011;64449;50.016;19.954;2022-10-31T05:13:27;21.40;;;12.10;;
75810;SDS011;64449;50.016;19.954;2022-10-31T05:15:52;25.00;;;13.90;;
75810;SDS011;64449;50.016;19.954;2022-10-31T05:18:18;19.80;;;13.50;;
75810;SDS011;64449;50.016;19.954;2022-10-31T05:20:43;30.30;;;14.20;;
75810;SDS011;64449;50.016;19.954;2022-10-31T05:23:08;25.00;;;14.20;;
75810;SDS011;64449;50.016;19.954;2022-10-31T05:25:34;26.20;;;13.50;;
75810;SDS011;64449;50.016;19.954;2022-10-31T05:27:59;19.20;;;9.70;;
75810;SDS011;64449;50.016;19.954;2022-10-31T05:30:29;22.60;;;12.10;;
75810;SDS011;64449;50.016;19.954;2022-10-31T05:32:56;19.50;;;10.70;;
75810;SDS011;64449;50.016;19.954;2022-10-31T05:35:24;23.40;;;13.60;;
75810;SDS011;64449;50.016;19.954;2022-10-31T05:37:51;25.00;;;13.00;;
75810;SDS011;64449;50.016;19.954;2022-10-31T05:40:17;23.40;;;13.50;;
75810;SDS011;64449;50.016;19.954;2022-10-31T05:42:44;25.40;;;12.30;;
75810;SDS011;64449;50.016;19.954;2022-10-31T05:45:11;21.20;;;12.50;;
75810;SDS011;64449;50.016;19.954;2022-10-31T05:47:38;18.20;;;11.20;;
75810;SDS011;64449;50.016;19.954;2022-10-31T05:50:04;23.40;;;12.10;;
75810;SDS011;64449;50.016;19.954;2022-10-31T05:52:31;18.20;;;11.40;;
75810;SDS011;64449;50.016;19.954;2022-10-31T05:54:56;19.30;;;10.20;;
75810;SDS011;64449;50.016;19.954;2022-10-31T05:57:22;14.20;;;8.00;;
75810;SDS011;64449;50.016;19.954;2022-10-31T05:59:47;21.70;;;10.90;;
75810;SDS011;64449;50.016;19.954;2022-10-31T06:02:13;23.50;;;13.50;;
75810;SDS011;64449;50.016;19.954;2022-10-31T06:04:38;20.50;;;12.70;;
75810;SDS011;64449;50.016;19.954;2022-10-31T06:07:04;16.80;;;9.60;;
75810;SDS011;64449;50.016;19.954;2022-10-31T06:09:29;17.20;;;10.00;;
75810;SDS011;64449;50.016;19.954;2022-10-31T06:11:54;16.30;;;9.30;;
75810;SDS011;64449;50.016;19.954;2022-10-31T06:14:20;21.70;;;12.10;;
75810;SDS011;64449;50.016;19.954;2022-10-31T06:16:45;19.70;;;12.00;;
75810;SDS011;64449;50.016;19.954;2022-10-31T06:19:10;18.10;;;10.30;;
75810;SDS011;64449;50.016;19.954;2022-10-31T06:21:36;22.80;;;12.20;;
75810;SDS011;64449;50.016;19.954;2022-10-31T06:24:01;22.80;;;12.50;;
75810;SDS011;64449;50.016;19.954;2022-10-31T06:26:27;17.40;;;10.50;;
75810;SDS011;64449;50.016;19.954;2022-10-31T06:28:52;25.90;;;13.10;;
75810;SDS011;64449;50.016;19.954;2022-10-31T06:31:17;17.50;;;10.50;;
75810;SDS011;64449;50.016;19.954;2022-10-31T06:33:43;17.00;;;10.10;;
75810;SDS011;64449;50.016;19.954;2022-10-31T06:36:08;21.70;;;12.50;;
75810;SDS011;64449;50.016;19.954;2022-10-31T06:38:34;25.80;;;13.30;;
75810;SDS011;64449;50.016;19.954;2022-10-31T06:41:03;21.60;;;12.30;;
75810;SDS011;64449;50.016;19.954;2022-10-31T06:43:30;21.00;;;11.60;;
75810;SDS011;64449;50.016;19.954;2022-10-31T06:45:56;16.80;;;10.50;;
75810;SDS011;64449;50.016;19.954;2022-10-31T06:48:21;24.70;;;10.40;;
75810;SDS011;64449;50.016;19.954;2022-10-31T06:50:47;19.80;;;11.80;;
75810;SDS011;64449;50.016;19.954;2022-10-31T06:53:12;18.90;;;10.80;;
75810;SDS011;64449;50.016;19.954;2022-10-31T06:55:39;21.00;;;11.50;;
75810;SDS011;64449;50.016;19.954;2022-10-31T06:58:05;20.60;;;11.90;;
75810;SDS011;64449;50.016;19.954;2022-10-31T07:00:31;23.80;;;11.80;;
75810;SDS011;64449;50.016;19.954;2022-10-31T07:03:02;23.00;;;12.10;;
75810;SDS011;64449;50.016;19.954;2022-10-31T07:05:29;16.20;;;8.80;;
75810;SDS011;64449;50.016;19.954;2022-10-31T07:07:59;15.50;;;9.90;;
75810;SDS011;64449;50.016;19.954;2022-10-31T07:10:27;20.90;;;12.70;;
75810;SDS011;64449;50.016;19.954;2022-10-31T07:12:55;23.60;;;13.50;;
75810;SDS011;64449;50.016;19.954;2022-10-31T07:15:25;16.20;;;10.50;;
75810;SDS011;64449;50.016;19.954;2022-10-31T07:17:52;22.90;;;13.40;;
75810;SDS011;64449;50.016;19.954;2022-10-31T07:20:17;19.00;;;11.50;;
75810;SDS011;64449;50.016;19.954;2022-10-31T07:22:43;21.90;;;11.80;;
75810;SDS011;64449;50.016;19.954;2022-10-31T07:25:09;22.60;;;11.40;;
75810;SDS011;64449;50.016;19.954;2022-10-31T07:27:38;16.40;;;8.80;;
75810;SDS011;64449;50.016;19.954;2022-10-31T07:30:05;17.70;;;10.60;;
75810;SDS011;64449;50.016;19.954;2022-10-31T07:32:50;18.10;;;9.10;;
75810;SDS011;64449;50.016;19.954;2022-10-31T07:35:16;19.70;;;10.30;;
75810;SDS011;64449;50.016;19.954;2022-10-31T07:37:43;17.60;;;10.20;;
75810;SDS011;64449;50.016;19.954;2022-10-31T07:40:09;14.10;;;9.00;;
75810;SDS011;64449;50.016;19.954;2022-10-31T07:42:36;16.40;;;9.00;;
75810;SDS011;64449;50.016;19.954;2022-10-31T07:45:03;17.40;;;10.70;;
75810;SDS011;64449;50.016;19.954;2022-10-31T07:47:29;16.70;;;9.50;;
75810;SDS011;64449;50.016;19.954;2022-10-31T07:50:02;13.30;;;7.60;;
75810;SDS011;64449;50.016;19.954;2022-10-31T07:52:28;16.40;;;10.10;;
75810;SDS011;64449;50.016;19.954;2022-10-31T07:54:53;18.90;;;11.20;;
75810;SDS011;64449;50.016;19.954;2022-10-31T07:57:19;19.30;;;10.30;;
75810;SDS011;64449;50.016;19.954;2022-10-31T07:59:44;14.90;;;9.00;;
75810;SDS011;64449;50.016;19.954;2022-10-31T08:02:10;13.10;;;7.40;;
75810;SDS011;64449;50.016;19.954;2022-10-31T08:04:35;14.80;;;9.20;;
75810;SDS011;64449;50.016;19.954;2022-10-31T08:07:00;15.60;;;7.50;;
75810;SDS011;64449;50.016;19.954;2022-10-31T08:09:26;18.10;;;10.20;;
75810;SDS011;64449;50.016;19.954;2022-10-31T08:11:52;17.30;;;8.90;;
75810;SDS011;64449;50.016;19.954;2022-10-31T08:14:18;18.80;;;9.90;;
75810;SDS011;64449;50.016;19.954;2022-10-31T08:16:43;21.80;;;10.20;;
75810;SDS011;64449;50.016;19.954;2022-10-31T08:19:08;16.80;;;9.80;;
75810;SDS011;64449;50.016;19.954;2022-10-31T08:21:34;16.00;;;7.40;;
75810;SDS011;64449;50.016;19.954;2022-10-31T08:23:59;21.10;;;9.50;;
75810;SDS011;64449;50.016;19.954;2022-10-31T08:26:24;13.60;;;7.10;;
75810;SDS011;64449;50.016;19.954;2022-10-31T08:28:50;17.40;;;11.30;;
75810;SDS011;64449;50.016;19.954;2022-10-31T08:31:15;18.20;;;10.10;;
75810;SDS011;64449;50.016;19.954;2022-10-31T08:33:40;10.90;;;6.00;;
75810;SDS011;64449;50.016;19.954;2022-10-31T08:36:06;14.20;;;8.60;;
75810;SDS011;64449;50.016;19.954;2022-10-31T08:38:32;17.30;;;10.50;;
75810;SDS011;64449;50.016;19.954;2022-10-31T08:40:57;12.60;;;5.80;;
75810;SDS011;64449;50.016;19.954;2022-10-31T08:43:22;14.20;;;9.00;;
75810;SDS011;64449;50.016;19.954;2022-10-31T08:45:48;13.70;;;8.70;;
75810;SDS011;64449;50.016;19.954;2022-10-31T08:48:15;14.90;;;7.70;;
75810;SDS011;64449;50.016;19.954;2022-10-31T08:50:42;16.90;;;10.00;;
75810;SDS011;64449;50.016;19.954;2022-10-31T08:53:18;16.60;;;9.10;;
75810;SDS011;64449;50.016;19.954;2022-10-31T08:55:44;19.20;;;8.80;;
75810;SDS011;64449;50.016;19.954;2022-10-31T08:58:12;13.00;;;8.00;;
75810;SDS011;64449;50.016;19.954;2022-10-31T09:00:39;14.90;;;8.20;;
75810;SDS011;64449;50.016;19.954;2022-10-31T09:03:12;11.00;;;6.40;;
75810;SDS011;64449;50.016;19.954;2022-10-31T09:05:39;17.00;;;7.70;;
75810;SDS011;64449;50.016;19.954;2022-10-31T09:08:05;12.30;;;7.00;;
75810;SDS011;64449;50.016;19.954;2022-10-31T09:10:32;17.60;;;9.10;;
75810;SDS011;64449;50.016;19.954;2022-10-31T09:13:03;11.40;;;6.20;;
75810;SDS011;64449;50.016;19.954;2022-10-31T09:15:31;13.30;;;6.10;;
75810;SDS011;64449;50.016;19.954;2022-10-31T09:17:58;13.80;;;6.20;;
75810;SDS011;64449;50.016;19.954;2022-10-31T09:20:24;12.30;;;6.20;;
75810;SDS011;64449;50.016;19.954;2022-10-31T09:22:59;10.50;;;6.30;;
75810;SDS011;64449;50.016;19.954;2022-10-31T09:25:35;10.40;;;5.10;;
75810;SDS011;64449;50.016;19.954;2022-10-31T09:28:02;11.50;;;5.50;;
75810;SDS011;64449;50.016;19.954;2022-10-31T09:30:30;13.60;;;6.70;;
75810;SDS011;64449;50.016;19.954;2022-10-31T09:32:57;10.30;;;4.80;;
75810;SDS011;64449;50.016;19.954;2022-10-31T09:35:24;9.60;;;5.90;;
75810;SDS011;64449;50.016;19.954;2022-10-31T09:37:54;12.90;;;5.60;;
75810;SDS011;64449;50.016;19.954;2022-10-31T09:40:37;9.60;;;4.90;;
75810;SDS011;64449;50.016;19.954;2022-10-31T09:46:15;8.20;;;4.40;;
75810;SDS011;64449;50.016;19.954;2022-10-31T09:51:45;9.40;;;4.80;;
75810;SDS011;64449;50.016;19.954;2022-10-31T09:54:16;8.80;;;3.90;;
75810;SDS011;64449;50.016;19.954;2022-10-31T09:57:05;8.90;;;4.30;;
75810;SDS011;64449;50.016;19.954;2022-10-31T09:59:37;13.30;;;4.40;;
75810;SDS011;64449;50.016;19.954;2022-10-31T10:02:06;10.20;;;4.90;;
75810;SDS011;64449;50.016;19.954;2022-10-31T10:10:17;10.90;;;4.90;;
75810;SDS011;64449;50.016;19.954;2022-10-31T10:13:05;8.30;;;4.00;;
75810;SDS011;64449;50.016;19.954;2022-10-31T10:18:30;9.50;;;4.60;;
75810;SDS011;64449;50.016;19.954;2022-10-31T10:24:17;8.70;;;4.50;;
75810;SDS011;64449;50.016;19.954;2022-10-31T10:29:33;10.40;;;4.10;;
75810;SDS011;64449;50.016;19.954;2022-10-31T10:32:06;11.90;;;4.50;;
75810;SDS011;64449;50.016;19.954;2022-10-31T10:34:49;13.00;;;4.80;;
75810;SDS011;64449;50.016;19.954;2022-10-31T10:37:31;14.90;;;5.10;;
75810;SDS011;64449;50.016;19.954;2022-10-31T10:40:11;8.00;;;3.90;;
75810;SDS011;64449;50.016;19.954;2022-10-31T10:42:41;10.60;;;4.80;;
75810;SDS011;64449;50.016;19.954;2022-10-31T10:45:28;8.60;;;4.70;;
75810;SDS011;64449;50.016;19.954;2022-10-31T10:48:23;13.00;;;5.00;;
75810;SDS011;64449;50.016;19.954;2022-10-31T10:51:03;9.80;;;4.10;;
75810;SDS011;64449;50.016;19.954;2022-10-31T10:53:54;10.70;;;4.90;;
75810;SDS011;64449;50.016;19.954;2022-10-31T10:59:17;10.80;;;4.30;;
75810;SDS011;64449;50.016;19.954;2022-10-31T11:01:45;9.60;;;4.10;;
75810;SDS011;64449;50.016;19.954;2022-10-31T11:04:38;7.80;;;4.20;;
75810;SDS011;64449;50.016;19.954;2022-10-31T11:07:05;10.10;;;3.80;;
75810;SDS011;64449;50.016;19.954;2022-10-31T11:09:33;11.10;;;4.20;;
75810;SDS011;64449;50.016;19.954;2022-10-31T11:12:05;14.60;;;4.20;;
75810;SDS011;64449;50.016;19.954;2022-10-31T11:17:41;9.60;;;4.00;;
75810;SDS011;64449;50.016;19.954;2022-10-31T11:22:39;11.10;;;4.00;;
75810;SDS011;64449;50.016;19.954;2022-10-31T11:27:44;10.50;;;4.20;;
75810;SDS011;64449;50.016;19.954;2022-10-31T11:30:11;15.80;;;7.30;;
75810;SDS011;64449;50.016;19.954;2022-10-31T11:32:39;9.10;;;3.90;;
75810;SDS011;64449;50.016;19.954;2022-10-31T11:35:14;29.60;;;18.30;;
75810;SDS011;64449;50.016;19.954;2022-10-31T11:37:43;12.20;;;5.30;;
75810;SDS011;64449;50.016;19.954;2022-10-31T11:40:18;9.30;;;4.50;;
75810;SDS011;64449;50.016;19.954;2022-10-31T11:42:50;9.80;;;4.90;;
75810;SDS011;64449;50.016;19.954;2022-10-31T11:45:40;10.60;;;4.40;;
75810;SDS011;64449;50.016;19.954;2022-10-31T11:48:14;10.20;;;4.00;;
75810;SDS011;64449;50.016;19.954;2022-10-31T11:50:50;11.20;;;4.10;;
75810;SDS011;64449;50.016;19.954;2022-10-31T11:53:20;14.10;;;9.30;;
75810;SDS011;64449;50.016;19.954;2022-10-31T11:58:39;9.40;;;4.70;;
75810;SDS011;64449;50.016;19.954;2022-10-31T12:01:05;12.20;;;4.10;;
75810;SDS011;64449;50.016;19.954;2022-10-31T12:03:40;11.30;;;4.00;;
75810;SDS011;64449;50.016;19.954;2022-10-31T12:08:44;9.10;;;4.40;;
75810;SDS011;64449;50.016;19.954;2022-10-31T12:16:31;10.70;;;4.70;;
75810;SDS011;64449;50.016;19.954;2022-10-31T12:19:06;9.50;;;4.40;;
75810;SDS011;64449;50.016;19.954;2022-10-31T12:21:53;12.10;;;4.20;;
75810;SDS011;64449;50.016;19.954;2022-10-31T12:27:22;11.90;;;6.20;;
75810;SDS011;64449;50.016;19.954;2022-10-31T12:30:15;9.60;;;4.20;;
75810;SDS011;64449;50.016;19.954;2022-10-31T12:35:43;9.40;;;4.10;;
75810;SDS011;64449;50.016;19.954;2022-10-31T12:38:30;11.00;;;4.80;;
75810;SDS011;64449;50.016;19.954;2022-10-31T12:57:51;7.70;;;4.70;;
75810;SDS011;64449;50.016;19.954;2022-10-31T13:00:21;9.80;;;5.20;;
75810;SDS011;64449;50.016;19.954;2022-10-31T13:05:36;9.50;;;4.30;;
75810;SDS011;64449;50.016;19.954;2022-10-31T13:08:07;12.70;;;4.00;;
75810;SDS011;64449;50.016;19.954;2022-10-31T13:16:46;13.60;;;4.70;;
75810;SDS011;64449;50.016;19.954;2022-10-31T13:19:20;16.80;;;5.70;;
75810;SDS011;64449;50.016;19.954;2022-10-31T13:21:58;12.90;;;5.10;;
75810;SDS011;64449;50.016;19.954;2022-10-31T13:24:33;10.20;;;4.20;;
75810;SDS011;64449;50.016;19.954;2022-10-31T13:27:02;10.20;;;4.70;;
75810;SDS011;64449;50.016;19.954;2022-10-31T13:29:38;10.80;;;4.50;;
75810;SDS011;64449;50.016;19.954;2022-10-31T13:32:15;10.90;;;4.20;;
75810;SDS011;64449;50.016;19.954;2022-10-31T13:34:42;9.60;;;4.80;;
75810;SDS011;64449;50.016;19.954;2022-10-31T13:45:47;8.20;;;4.80;;
75810;SDS011;64449;50.016;19.954;2022-10-31T13:50:59;11.40;;;5.90;;
75810;SDS011;64449;50.016;19.954;2022-10-31T13:53:44;13.70;;;5.00;;
75810;SDS011;64449;50.016;19.954;2022-10-31T13:56:22;10.50;;;4.60;;
75810;SDS011;64449;50.016;19.954;2022-10-31T13:59:15;10.50;;;4.60;;
75810;SDS011;64449;50.016;19.954;2022-10-31T14:01:49;9.40;;;4.20;;
75810;SDS011;64449;50.016;19.954;2022-10-31T14:04:25;11.10;;;4.60;;
75810;SDS011;64449;50.016;19.954;2022-10-31T14:11:53;13.40;;;4.90;;
75810;SDS011;64449;50.016;19.954;2022-10-31T14:14:20;9.90;;;4.40;;
75810;SDS011;64449;50.016;19.954;2022-10-31T14:16:55;11.30;;;5.20;;
75810;SDS011;64449;50.016;19.954;2022-10-31T14:19:22;9.00;;;4.70;;
75810;SDS011;64449;50.016;19.954;2022-10-31T14:21:48;10.80;;;4.30;;
75810;SDS011;64449;50.016;19.954;2022-10-31T14:24:16;10.60;;;4.40;;
75810;SDS011;64449;50.016;19.954;2022-10-31T14:27:01;14.30;;;5.20;;
75810;SDS011;64449;50.016;19.954;2022-10-31T14:29:47;12.90;;;4.50;;
75810;SDS011;64449;50.016;19.954;2022-10-31T14:34:40;14.70;;;6.80;;
75810;SDS011;64449;50.016;19.954;2022-10-31T14:40:14;7.60;;;4.40;;
75810;SDS011;64449;50.016;19.954;2022-10-31T14:51:01;10.10;;;4.70;;
75810;SDS011;64449;50.016;19.954;2022-10-31T14:53:56;11.80;;;3.90;;
75810;SDS011;64449;50.016;19.954;2022-10-31T14:58:59;10.30;;;4.50;;
75810;SDS011;64449;50.016;19.954;2022-10-31T15:01:28;13.60;;;5.10;;
75810;SDS011;64449;50.016;19.954;2022-10-31T15:04:09;12.50;;;5.40;;
75810;SDS011;64449;50.016;19.954;2022-10-31T15:06:46;10.00;;;5.10;;
75810;SDS011;64449;50.016;19.954;2022-10-31T15:09:33;11.10;;;4.60;;
75810;SDS011;64449;50.016;19.954;2022-10-31T15:12:00;10.00;;;4.70;;
75810;SDS011;64449;50.016;19.954;2022-10-31T15:14:41;11.60;;;4.60;;
75810;SDS011;64449;50.016;19.954;2022-10-31T15:17:08;12.20;;;5.30;;
75810;SDS011;64449;50.016;19.954;2022-10-31T15:19:36;12.70;;;4.90;;
75810;SDS011;64449;50.016;19.954;2022-10-31T15:22:02;11.50;;;5.00;;
75810;SDS011;64449;50.016;19.954;2022-10-31T15:24:35;11.10;;;4.80;;
75810;SDS011;64449;50.016;19.954;2022-10-31T15:27:02;10.70;;;5.30;;
75810;SDS011;64449;50.016;19.954;2022-10-31T15:29:28;17.30;;;8.90;;
75810;SDS011;64449;50.016;19.954;2022-10-31T15:32:01;16.50;;;9.00;;
75810;SDS011;64449;50.016;19.954;2022-10-31T15:37:16;13.80;;;4.90;;
75810;SDS011;64449;50.016;19.954;2022-10-31T15:39:44;13.60;;;5.70;;
75810;SDS011;64449;50.016;19.954;2022-10-31T15:42:24;10.60;;;5.20;;
75810;SDS011;64449;50.016;19.954;2022-10-31T15:44:59;12.90;;;5.30;;
75810;SDS011;64449;50.016;19.954;2022-10-31T15:47:26;11.30;;;5.00;;
75810;SDS011;64449;50.016;19.954;2022-10-31T15:49:55;12.90;;;5.20;;
75810;SDS011;64449;50.016;19.954;2022-10-31T15:52:42;13.50;;;5.10;;
75810;SDS011;64449;50.016;19.954;2022-10-31T15:57:45;13.50;;;5.00;;
75810;SDS011;64449;50.016;19.954;2022-10-31T16:02:48;13.30;;;5.00;;
75810;SDS011;64449;50.016;19.954;2022-10-31T16:05:15;11.80;;;4.80;;
75810;SDS011;64449;50.016;19.954;2022-10-31T16:07:49;11.00;;;4.50;;
75810;SDS011;64449;50.016;19.954;2022-10-31T16:10:25;11.50;;;5.10;;
75810;SDS011;64449;50.016;19.954;2022-10-31T16:12:51;12.10;;;4.70;;
75810;SDS011;64449;50.016;19.954;2022-10-31T16:15:19;10.50;;;5.10;;
75810;SDS011;64449;50.016;19.954;2022-10-31T16:17:49;13.00;;;5.70;;
75810;SDS011;64449;50.016;19.954;2022-10-31T16:20:18;9.50;;;4.90;;
75810;SDS011;64449;50.016;19.954;2022-10-31T16:22:50;13.70;;;6.30;;
75810;SDS011;64449;50.016;19.954;2022-10-31T16:27:57;14.20;;;5.40;;
75810;SDS011;64449;50.016;19.954;2022-10-31T16:30:30;13.70;;;6.40;;
75810;SDS011;64449;50.016;19.954;2022-10-31T16:33:02;13.20;;;5.90;;
75810;SDS011;64449;50.016;19.954;2022-10-31T16:35:31;17.10;;;6.30;;
75810;SDS011;64449;50.016;19.954;2022-10-31T16:37:58;14.80;;;6.40;;
75810;SDS011;64449;50.016;19.954;2022-10-31T16:40:24;16.60;;;8.00;;
75810;SDS011;64449;50.016;19.954;2022-10-31T16:42:50;19.10;;;7.60;;
75810;SDS011;64449;50.016;19.954;2022-10-31T16:45:23;16.80;;;7.80;;
75810;SDS011;64449;50.016;19.954;2022-10-31T16:47:50;14.00;;;7.40;;
75810;SDS011;64449;50.016;19.954;2022-10-31T16:50:18;19.30;;;7.50;;
75810;SDS011;64449;50.016;19.954;2022-10-31T16:52:46;18.90;;;7.80;;
75810;SDS011;64449;50.016;19.954;2022-10-31T16:55:13;16.20;;;7.10;;
75810;SDS011;64449;50.016;19.954;2022-10-31T16:57:39;15.20;;;8.00;;
75810;SDS011;64449;50.016;19.954;2022-10-31T17:00:12;13.70;;;6.40;;